• Join FlightAware (Why Join?)
  • Login
  • US Flag 
09:47PM EST


 

Airport Tracker/Info


-or-


 

Live Flight TrackerFlight Track Log ✈ THY446 ✈ 27-Jul-2013 ✈ LTBA / IST - UWUU / UFA

Flight Track Log - Related Links

Times and Time Zones

All times are in EDT time to prevent confusion due to time zone crossing. See the THY446 flight status page for this flight to view local times or setup timezone preferences in your user account.

Time Position Orientation Groundspeed Altitude Reporting Facility
EDT Latitude Longitude Course Direction KTS MPH feet Rate Location/Type
05:36PM 40.9740 28.8120 208° Southwest 11 13  Level FlightAware
05:37PM 40.9730 28.8120 180° South 12 14 420 Level FlightAware
05:39PM 41.1248 29.0045 44° Northeast  Level Estimated
05:40PM 41.2039 29.1053 44° Northeast  Level Estimated
05:41PM 41.2829 29.2063 44° Northeast  Level Estimated
05:41PM 41.0020 28.8060 44° Northeast 1,100  Level FlightAware
05:42PM 41.0430 28.8060 360° North 198 228 2,600 2,400 Climbing FlightAware
05:42PM 41.0950 28.8180 10° North 220 253 5,100 2,700 Climbing FlightAware
05:43PM 41.1220 28.8350 25° Northeast 247 284 6,000 2,580 Climbing FlightAware
05:43PM 41.1530 28.8440 12° North 251 289 7,500 3,120 Climbing FlightAware
05:44PM 41.1870 28.8540 12° North 266 306 8,900 3,060 Climbing FlightAware
05:44PM 41.2290 28.8650 11° North 265 305 10,600 2,040 Climbing FlightAware
05:45PM 41.2790 28.8800 13° North 314 361 11,500 1,800 Climbing FlightAware
05:46PM 41.3500 28.9010 13° North 330 380 13,200 2,520 Climbing FlightAware
05:47PM 41.4180 28.9200 12° North 331 381 15,300 2,400 Climbing FlightAware
05:47PM 41.4690 28.9350 12° North 348 400 16,400 2,100 Climbing FlightAware
05:48PM 41.5510 28.9590 12° North 349 402 18,300 2,220 Climbing FlightAware
05:49PM 41.6100 28.9760 12° North 363 418 19,600 1,860 Climbing FlightAware
05:49PM 41.6620 28.9920 13° North 361 415 20,500 1,860 Climbing FlightAware
05:50PM 41.7430 29.0160 12° North 365 420 22,100 2,040 Climbing FlightAware
05:51PM 41.8220 29.0390 12° North 375 432 23,600 2,220 Climbing FlightAware
05:51PM 41.8710 29.0530 12° North 363 418 24,900 1,680 Climbing FlightAware
05:52PM 41.9590 29.1150 28° Northeast 394 453 26,200 1,200 Climbing FlightAware
05:53PM 42.0080 29.1720 41° Northeast 401 461 26,800 1,080 Climbing FlightAware
05:54PM 42.0980 29.2750 40° Northeast 410 472 28,000 1,140 Climbing FlightAware
05:54PM 42.1560 29.3420 41° Northeast 420 483 28,700 1,020 Climbing FlightAware
05:55PM 42.2230 29.4200 41° Northeast 424 488 29,500 960 Climbing FlightAware
05:56PM 42.2910 29.4990 41° Northeast 429 494 30,200 900 Climbing FlightAware
05:57PM 42.3480 29.5650 41° Northeast 430 495 30,800 900 Climbing FlightAware
05:57PM 42.4130 29.6410 41° Northeast 432 497 31,500 900 Climbing FlightAware
05:58PM 42.4790 29.7180 41° Northeast 444 511 32,100 840 Climbing FlightAware
05:59PM 42.5330 29.7800 40° Northeast 446 513 32,600 660 Climbing FlightAware
05:59PM 42.6000 29.8600 41° Northeast 449 517 33,000 600 Climbing FlightAware
06:00PM 42.6680 29.9400 41° Northeast 454 522 33,500 600 Climbing FlightAware
06:01PM 42.7400 30.0240 41° Northeast 472 543 33,900 720 Climbing FlightAware
06:01PM 42.8120 30.1110 42° Northeast 456 525 34,600 1,020 Climbing FlightAware
06:02PM 42.8710 30.1810 41° Northeast 450 518 35,300 780 Climbing FlightAware
06:03PM 42.9750 30.3050 41° Northeast 455 524 36,000 300 Climbing FlightAware
06:04PM 43.0700 30.4190 41° Northeast 460 529 36,000  Level FlightAware
06:05PM 43.1250 30.4870 42° Northeast 460 529 36,000  Level FlightAware
06:05PM 43.1740 30.5470 42° Northeast 460 529 36,000  Level FlightAware
06:06PM 43.2890 30.6660 37° Northeast 458 527 36,000 -60 Level FlightAware
06:07PM 43.3730 30.7300 29° Northeast 456 525 35,900 -120 Descending FlightAware
06:08PM 43.4320 30.7730 28° Northeast 456 525 35,900 60 Level FlightAware
06:09PM 43.4340 30.7760 47° Northeast 461 531 36,000 120 Climbing FlightAware
06:09PM 43.6060 30.9070 29° Northeast 464 534 36,100  Climbing FlightAware
06:10PM 43.6840 30.9660 29° Northeast 465 535 36,000 -120 Descending FlightAware
06:11PM 43.7840 31.0420 29° Northeast 467 537 36,000  Level FlightAware
06:12PM 43.8940 31.1250 29° Northeast 466 536 36,000 300 Level FlightAware
06:12PM 43.9700 31.1830 29° Northeast 463 533 36,500 660 Climbing FlightAware
06:13PM 44.0570 31.2490 29° Northeast 463 533 37,000 300 Climbing FlightAware
06:14PM 44.1310 31.3060 29° Northeast 466 536 37,000  Level FlightAware
06:15PM 44.2160 31.3710 29° Northeast 462 532 37,000  Level FlightAware
06:15PM 44.3000 31.4350 29° Northeast 459 528 37,000  Level FlightAware
06:16PM 44.3460 31.4710 29° Northeast 458 527 37,000  Level FlightAware
06:17PM 44.4490 31.5510 29° Northeast 457 526 37,000 -120 Level FlightAware
06:17PM 44.5210 31.6080 29° Northeast 458 527 36,900  Descending FlightAware
06:18PM 44.6050 31.6730 29° Northeast 461 531 37,000 60 Climbing FlightAware
06:19PM 44.6810 31.7320 29° Northeast 465 535 37,000  Level FlightAware
06:19PM 44.7560 31.7910 29° Northeast 467 537 37,000 60 Level FlightAware
06:20PM 44.8290 31.8490 29° Northeast 469 540 37,100 60 Climbing FlightAware
06:21PM 44.9090 31.9130 30° Northeast 469 540 37,100 -120 Level FlightAware
06:21PM 44.9940 31.9810 29° Northeast 470 541 37,000 -120 Descending FlightAware
06:22PM 45.0790 32.0480 29° Northeast 470 541 37,000  Level FlightAware
06:23PM 45.1530 32.1080 30° Northeast 469 540 37,000  Level FlightAware
06:24PM 45.2380 32.1770 30° Northeast 468 539 37,000  Level FlightAware
06:24PM 45.3140 32.2380 29° Northeast 466 536 37,000  Level FlightAware
06:25PM 45.3980 32.3060 30° Northeast 466 536 37,000  Level FlightAware
06:26PM 45.4710 32.3700 32° Northeast 468 539 37,000  Level FlightAware
06:26PM 45.5410 32.4400 35° Northeast 467 537 37,000  Level FlightAware
06:27PM 45.6230 32.5210 35° Northeast 467 537 37,000  Level FlightAware
06:28PM 45.6920 32.5900 35° Northeast 467 537 37,000  Level FlightAware
06:28PM 45.7630 32.6590 34° Northeast 467 537 37,000  Level FlightAware
06:29PM 45.8430 32.7380 35° Northeast 466 536 37,000  Level FlightAware
06:30PM 45.9220 32.8160 34° Northeast 464 534 37,000  Level FlightAware
06:31PM 45.9940 32.8870 34° Northeast 463 533 37,000  Level FlightAware
06:31PM 46.0640 32.9570 35° Northeast 462 532 37,000  Level FlightAware
06:32PM 46.1420 33.0350 35° Northeast 461 531 37,000  Level FlightAware
06:33PM 46.2130 33.1060 35° Northeast 461 531 37,000  Level FlightAware
06:33PM 46.2930 33.1850 34° Northeast 461 531 37,000  Level FlightAware
06:34PM 46.3620 33.2550 35° Northeast 463 533 37,000  Level FlightAware
06:35PM 46.4320 33.3260 35° Northeast 463 533 37,000  Level FlightAware
06:35PM 46.5030 33.3980 35° Northeast 464 534 37,000  Level FlightAware
06:36PM 46.5820 33.4780 35° Northeast 464 534 37,000  Level FlightAware
06:37PM 46.6600 33.5580 35° Northeast 462 532 37,000  Level FlightAware
06:38PM 46.7200 33.6200 35° Northeast 460 529 37,000  Level FlightAware
06:38PM 46.8000 33.7020 35° Northeast 458 527 37,000  Level FlightAware
06:39PM 46.8770 33.7820 35° Northeast 459 528 37,000  Level FlightAware
06:40PM 46.9460 33.8540 35° Northeast 459 528 37,000  Level FlightAware
06:40PM 47.0130 33.9230 35° Northeast 460 529 37,000  Level FlightAware
06:41PM 47.0850 33.9980 35° Northeast 460 529 37,000  Level FlightAware
06:42PM 47.1630 34.0790 35° Northeast 460 529 37,000  Level FlightAware
06:42PM 47.2220 34.1410 36° Northeast 459 528 37,000  Level FlightAware
06:43PM 47.3010 34.2250 36° Northeast 459 528 37,000  Level FlightAware
06:44PM 47.3610 34.2870 35° Northeast 460 529 37,000  Level FlightAware
06:45PM 47.4580 34.3910 36° Northeast 460 529 37,000  Level FlightAware
06:46PM 47.5410 34.4800 36° Northeast 457 526 37,000  Level FlightAware
06:46PM 47.6130 34.5570 36° Northeast 455 524 37,000  Level FlightAware
06:47PM 47.6740 34.6210 35° Northeast 455 524 37,000  Level FlightAware
06:47PM 47.7390 34.6920 36° Northeast 454 522 37,000  Level FlightAware
06:48PM 47.8000 34.7580 36° Northeast 453 521 37,000  Level FlightAware
06:49PM 47.9070 34.8730 36° Northeast 452 520 37,000  Level FlightAware
06:50PM 47.9900 34.9630 36° Northeast 452 520 37,000  Level FlightAware
06:51PM 48.0450 35.0240 37° Northeast 453 521 37,000  Level FlightAware
06:52PM 48.1430 35.1310 36° Northeast 455 524 37,000  Level FlightAware
06:52PM 48.2130 35.2080 36° Northeast 457 526 37,000  Level FlightAware
06:53PM 48.2900 35.2920 36° Northeast 460 529 37,000  Level FlightAware
06:54PM 48.3580 35.3690 37° Northeast 461 531 37,000 60 Level FlightAware
06:54PM 48.4470 35.4680 36° Northeast 460 529 37,100  Climbing FlightAware
06:55PM 48.5120 35.5400 36° Northeast 460 529 37,000 -120 Descending FlightAware
06:56PM 48.5880 35.6250 36° Northeast 459 528 37,000  Level FlightAware
06:56PM 48.6580 35.7050 37° Northeast 457 526 37,000  Level FlightAware
06:57PM 48.7230 35.7780 37° Northeast 457 526 37,000  Level FlightAware
06:58PM 48.7920 35.8570 37° Northeast 457 526 37,000  Level FlightAware
06:58PM 48.8520 35.9240 36° Northeast 456 525 37,000  Level FlightAware
06:59PM 48.9310 36.0140 37° Northeast 458 527 37,000  Level FlightAware
07:00PM 49.0000 36.0930 37° Northeast 457 526 37,000  Level FlightAware
07:01PM 49.0700 36.1740 37° Northeast 456 525 37,000  Level FlightAware
07:01PM 49.1400 36.2540 37° Northeast 455 524 37,000  Level FlightAware
07:02PM 49.2170 36.3440 37° Northeast 455 524 37,000  Level FlightAware
07:03PM 49.2740 36.4110 37° Northeast 454 522 37,000  Level FlightAware
07:04PM 49.3750 36.5280 37° Northeast 452 520 37,000  Level FlightAware
07:04PM 49.4470 36.6120 37° Northeast 451 519 37,000  Level FlightAware
07:05PM 49.5110 36.6870 37° Northeast 453 521 37,000  Level FlightAware
07:06PM 49.6100 36.8050 38° Northeast 456 525 37,000  Level FlightAware
07:07PM 49.6710 36.8770 37° Northeast 456 525 37,000  Level FlightAware
07:08PM 49.7610 36.9840 38° Northeast 458 527 37,000  Level FlightAware
07:08PM 49.8450 37.0850 38° Northeast 459 528 37,000  Level FlightAware
07:09PM 49.9110 37.1650 38° Northeast 461 531 37,000  Level FlightAware
07:10PM 49.9740 37.2410 38° Northeast 463 533 37,000  Level FlightAware
07:11PM 50.0700 37.3560 38° Northeast 465 535 37,000  Level FlightAware
07:11PM 50.1450 37.4480 38° Northeast 464 534 37,100  Climbing FlightAware
07:12PM 50.2140 37.5320 38° Northeast 463 533 37,000 -120 Descending FlightAware
07:13PM 50.2890 37.6250 38° Northeast 462 532 37,000  Level FlightAware
07:13PM 50.3570 37.7200 42° Northeast 462 532 37,000  Level FlightAware
07:14PM 50.4290 37.8230 42° Northeast 462 532 37,000  Level FlightAware
07:15PM 50.5190 37.9520 42° Northeast 462 532 37,000  Level FlightAware
07:16PM 50.5910 38.0560 43° Northeast 462 532 37,000  Level FlightAware
07:16PM 50.6450 38.1330 42° Northeast 462 532 37,000  Level FlightAware
07:17PM 50.7170 38.2370 42° Northeast 462 532 37,000  Level FlightAware
07:18PM 50.8070 38.3670 42° Northeast 462 532 37,000  Level FlightAware
07:19PM 50.8930 38.4900 42° Northeast 462 532 37,000  Level FlightAware
07:20PM 50.9170 38.6310 75° East 451 519 37,000  Level FlightAware
07:21PM 50.9910 38.7520 46° Northeast 453 521 37,000  Level FlightAware
07:22PM 51.0600 38.8650 46° Northeast 454 522 37,000  Level FlightAware
07:22PM 51.1230 38.9700 46° Northeast 454 522 37,000  Level FlightAware
07:23PM 51.1670 39.0430 46° Northeast 454 522 37,000  Level FlightAware
07:24PM 51.2270 39.1420 46° Northeast 454 522 37,000  Level FlightAware
07:24PM 51.2720 39.2160 46° Northeast 454 522 37,000  Level FlightAware
07:25PM 51.3310 39.3140 46° Northeast 454 522 37,000  Level FlightAware
07:26PM 51.3760 39.3880 46° Northeast 454 522 37,000  Level FlightAware
07:26PM 51.4200 39.4620 46° Northeast 454 522 37,000  Level FlightAware
07:27PM 51.4950 39.5860 46° Northeast 454 522 37,000  Level FlightAware
07:28PM 51.5390 39.6600 46° Northeast 454 522 37,000  Level FlightAware
07:29PM 51.5850 39.7370 46° Northeast 454 522 37,000  Level FlightAware
07:29PM 51.6450 39.8360 46° Northeast 454 522 37,000  Level FlightAware
07:30PM 51.6890 39.9110 47° Northeast 454 522 37,000  Level FlightAware
07:31PM 51.7500 40.0120 46° Northeast 454 522 37,000  Level FlightAware
07:33PM 51.8249 40.3031 67° East  Level Estimated
07:34PM 51.8695 40.4782 68° East  Level Estimated
07:35PM 51.9139 40.6537 68° East  Level Estimated
07:36PM 51.9580 40.8295 68° East  Level Estimated
07:37PM 52.0018 41.0056 68° East  Level Estimated
07:38PM 52.0453 41.1821 68° East  Level Estimated
07:39PM 52.0886 41.3590 68° East  Level Estimated
07:40PM 52.1317 41.5362 68° East  Level Estimated
07:41PM 52.1744 41.7137 68° East  Level Estimated
07:42PM 52.2169 41.8916 69° East  Level Estimated
07:43PM 52.2592 42.0698 69° East  Level Estimated
07:44PM 52.3011 42.2483 69° East  Level Estimated
07:45PM 52.3428 42.4272 69° East  Level Estimated
07:46PM 52.3843 42.6064 69° East  Level Estimated
07:47PM 52.4254 42.7860 69° East  Level Estimated
07:47PM 52.7080 43.4830 69° East 467 537 37,000  Level FlightAware
07:48PM 52.7690 43.6140 52° Northeast 463 533 37,000  Level FlightAware
07:49PM 52.8350 43.7410 49° Northeast 463 533 37,000  Level FlightAware
07:50PM 52.8980 43.8640 50° Northeast 464 534 37,000  Level FlightAware
07:50PM 52.9530 43.9730 50° Northeast 463 533 37,000  Level FlightAware
07:51PM 53.0170 44.0950 49° Northeast 462 532 37,000  Level FlightAware
07:52PM 53.0700 44.2000 50° Northeast 461 531 37,000  Level FlightAware
07:52PM 53.1310 44.3210 50° Northeast 461 531 37,000  Level FlightAware
07:53PM 53.1840 44.4260 50° Northeast 462 532 37,000  Level FlightAware
07:54PM 53.2410 44.5380 50° Northeast 462 532 37,000  Level FlightAware
07:54PM 53.3020 44.6600 50° Northeast 463 533 37,000  Level FlightAware
07:55PM 53.3550 44.7670 50° Northeast 465 535 37,000  Level FlightAware
07:56PM 53.4180 44.8950 50° Northeast 465 535 37,000  Level FlightAware
07:57PM 53.4720 45.0050 50° Northeast 466 536 37,000  Level FlightAware
07:57PM 53.5280 45.1190 50° Northeast 465 535 37,000  Level FlightAware
07:58PM 53.5860 45.2460 52° Northeast 467 537 37,000  Level FlightAware
07:59PM 53.6340 45.3670 56° Northeast 466 536 37,000  Level FlightAware
07:59PM 53.6830 45.4880 56° Northeast 466 536 37,000  Level FlightAware
08:00PM 53.7310 45.6090 56° Northeast 465 535 37,000  Level FlightAware
08:01PM 53.7790 45.7310 56° Northeast 464 534 37,000  Level FlightAware
08:01PM 53.8130 45.8170 56° Northeast 464 534 37,000  Level FlightAware
08:02PM 53.8670 45.9550 56° Northeast 464 534 37,000  Level FlightAware
08:03PM 53.9190 46.0900 57° Northeast 464 534 37,000  Level FlightAware
08:03PM 53.9640 46.2070 57° Northeast 463 533 37,000  Level FlightAware
08:04PM 54.0200 46.3520 57° Northeast 464 534 37,000  Level FlightAware
08:05PM 54.0660 46.4720 57° Northeast 464 534 37,000  Level FlightAware
08:05PM 54.1100 46.5860 57° Northeast 462 532 37,000  Level FlightAware
08:06PM 54.1730 46.7210 51° Northeast 462 532 37,000  Level FlightAware
08:07PM 54.2320 46.8300 47° Northeast 463 533 37,000  Level FlightAware
08:08PM 54.2950 46.9480 48° Northeast 463 533 37,000  Level FlightAware
08:08PM 54.3540 47.0580 47° Northeast 465 535 37,000  Level FlightAware
08:09PM 54.4170 47.1790 48° Northeast 467 537 37,000  Level FlightAware
08:10PM 54.4750 47.2930 49° Northeast 468 539 37,000  Level FlightAware
08:10PM 54.5400 47.4190 48° Northeast 470 541 37,000  Level FlightAware
08:11PM 54.5890 47.5150 49° Northeast 470 541 37,000  Level FlightAware
08:12PM 54.6550 47.6440 48° Northeast 470 541 37,000  Level FlightAware
08:12PM 54.7180 47.7680 49° Northeast 470 541 37,000  Level FlightAware
08:13PM 54.7760 47.8840 49° Northeast 469 540 37,000  Level FlightAware
08:14PM 54.8400 48.0110 49° Northeast 467 537 37,000  Level FlightAware
08:15PM 54.8920 48.1090 47° Northeast 468 539 37,000  Level FlightAware
08:15PM 54.9530 48.2390 51° Northeast 467 537 37,000  Level FlightAware
08:16PM 54.9980 48.3870 62° Northeast 466 536 37,000  Level FlightAware
08:17PM 55.0240 48.5230 72° East 465 535 37,000  Level FlightAware
08:17PM 55.0440 48.6540 75° East 465 535 37,000  Level FlightAware
08:18PM 55.0690 48.8160 75° East 466 536 37,000  Level FlightAware
08:19PM 55.0910 48.9600 75° East 466 536 37,000  Level FlightAware
08:19PM 55.1150 49.1170 75° East 465 535 37,000  Level FlightAware
08:20PM 55.1360 49.2630 76° East 465 535 37,000  Level FlightAware
08:21PM 55.1580 49.4100 75° East 464 534 37,000  Level FlightAware
08:21PM 55.1800 49.5570 75° East 466 536 37,000  Level FlightAware
08:22PM 55.1990 49.6880 76° East 467 537 37,000  Level FlightAware
08:23PM 55.2220 49.8510 76° East 470 541 37,000  Level FlightAware
08:23PM 55.2420 49.9910 76° East 470 541 37,000  Level FlightAware
08:24PM 55.2640 50.1470 76° East 471 542 37,000  Level FlightAware
08:25PM 55.2880 50.3150 76° East 472 543 37,000  Level FlightAware
08:25PM 55.3070 50.4570 77° East 472 543 37,000  Level FlightAware
08:26PM 55.3310 50.6250 76° East 470 541 37,000  Level FlightAware
08:27PM 55.3520 50.7700 76° East 471 542 37,000  Level FlightAware
08:27PM 55.3720 50.8860 73° East 471 542 37,000  Level FlightAware
08:29PM 55.4170 51.1590 74° East 470 541 37,000  Level FlightAware
08:29PM 55.4350 51.2740 75° East 470 541 37,000  Level FlightAware
08:30PM 55.4680 51.4770 74° East 470 541 37,000  Level FlightAware
08:31PM 55.4990 51.6650 74° East 470 541 37,000 -240 Level FlightAware
08:32PM 55.5220 51.8440 77° East 467 537 36,600 -900 Descending FlightAware
08:33PM 55.5280 52.0520 87° East 469 540 35,700 -1,020 Descending FlightAware
08:33PM 55.5170 52.2120 97° East 456 525 35,000 -540 Descending FlightAware
08:34PM 55.5070 52.3310 98° East 456 525 35,000 -720 Level FlightAware
08:35PM 55.4600 52.5080 115° Southeast 436 502 33,900 -720 Descending FlightAware
08:36PM 55.4360 52.6080 113° Southeast 436 502 33,900 -1,980 Level FlightAware
08:36PM 55.3830 52.8090 115° Southeast 431 496 31,100 -1,920 Descending FlightAware
08:37PM 55.3570 52.9160 113° Southeast 431 496 31,100  Level FlightAware
08:38PM 55.3240 53.0530 113° Southeast 431 496 31,100  Level FlightAware
08:39PM 55.3000 53.1540 113° Southeast 431 496 31,100  Level FlightAware
08:39PM 55.2680 53.2860 113° Southeast 431 496 31,100  Level FlightAware
08:40PM 55.2440 53.3840 113° Southeast 431 496 31,100  Level FlightAware
08:41PM 55.2120 53.5180 113° Southeast 431 496 31,100  Level FlightAware
08:42PM 55.1790 53.6520 113° Southeast 431 496 31,100  Level FlightAware
08:42PM 55.1550 53.7510 113° Southeast 431 496 31,100  Level FlightAware
08:43PM 55.1240 53.8820 112° Southeast 431 496 31,100  Level FlightAware
08:44PM 55.0920 54.0120 113° Southeast 431 496 31,100  Level FlightAware
08:44PM 55.0680 54.1110 113° Southeast 431 496 31,100  Level FlightAware
08:45PM 55.0360 54.2410 113° Southeast 431 496 31,100  Level FlightAware
08:46PM 55.0110 54.3450 113° Southeast 431 496 31,100  Level FlightAware
08:46PM 54.9870 54.4430 113° Southeast 431 496 31,100  Level FlightAware
08:49PM 54.8735 54.8299 117° Southeast  Level Estimated
08:50PM 54.8198 55.0106 117° Southeast  Level Estimated
08:51PM 54.7659 55.1907 117° Southeast  Level Estimated
08:52PM 54.7117 55.3703 118° Southeast  Level Estimated
08:53PM 54.6573 55.5495 118° Southeast  Level Estimated
08:54PM 54.6026 55.7282 118° Southeast  Level Estimated
08:55PM 54.5575 55.8744 118° Southeast  Level Estimated
08:56PM 54.5575 55.8744 300° West  Level Estimated
08:57PM 54.5575 55.8744 300° West  Level Estimated
08:58PM 54.5575 55.8744 300° West  Level Estimated
08:59PM 54.5575 55.8744 300° West  Level Estimated
09:00PM 54.5575 55.8744 300° West  Level Estimated
09:01PM 54.5575 55.8744 300° West  Level Estimated
09:02PM 54.5575 55.8744 300° West  Level Estimated
09:03PM 54.5575 55.8744 300° West  Level Estimated
09:04PM 54.5575 55.8744 300° West  Level Estimated
09:05PM 54.5575 55.8744 300° West  Level Estimated
09:06PM 54.5575 55.8744 300° West  Level Estimated
09:07PM 54.5575 55.8744 300° West  Level Estimated
09:08PM 54.5575 55.8744 300° West  Level Estimated